Time;durP1;ratioP1;P1;durP2;ratioP2;P2;SDS_P1;SDS_P2;PMS_P1;PMS_P2;Temp;Humidity;BMP_temperature;BMP_pressure;BME280_temperature;BME280_humidity;BME280_pressure;Samples;Min_cycle;Max_cycle;Signal;HPM_P1;HPM_P2
2022/07/02 00:01:33;;;;;;;;;;;10.40;99.90;;;;;;5067195;28;19966;-81
2022/07/02 00:04:02;;;;;;;;;;;10.40;99.90;;;;;;5071909;28;19909;-80
2022/07/02 00:06:29;;;;;;;;;;;10.40;99.90;;;;;;5072161;28;19915;-80
2022/07/02 00:08:55;;;;;;;;;;;10.40;99.90;;;;;;5072329;28;20179;-80
2022/07/02 00:11:20;;;;;;;;;;;10.40;99.90;;;;;;5072132;28;20464;-80
2022/07/02 00:13:46;;;;;;;;;;;10.40;99.90;;;;;;5071985;28;19959;-80
2022/07/02 00:16:12;;;;;;;;;;;10.30;99.90;;;;;;5072245;28;19931;-80
2022/07/02 00:18:38;;;;;;;;;;;10.30;99.90;;;;;;5076503;28;19909;-81
2022/07/02 00:21:03;;;;;;;;;;;10.30;99.90;;;;;;5070916;28;19912;-80
2022/07/02 00:23:29;;;;;;;;;;;10.30;99.90;;;;;;5069836;28;19923;-81
2022/07/02 00:26:02;;;;;;;;;;;10.30;99.90;;;;;;5071914;28;19918;-81
2022/07/02 00:28:28;;;;;;;;;;;10.30;99.90;;;;;;5074822;28;19908;-81
2022/07/02 00:30:54;;;;;;;;;;;10.20;99.90;;;;;;5076385;28;20264;-81
2022/07/02 00:33:19;;;;;;;;;;;10.30;99.90;;;;;;5073281;28;19908;-81
2022/07/02 00:35:46;;;;;;;;;;;10.20;99.90;;;;;;5076053;28;19909;-81
2022/07/02 00:38:11;;;;;;;;;;;10.20;99.90;;;;;;5076309;28;19908;-80
2022/07/02 00:40:38;;;;;;;;;;;10.30;99.90;;;;;;5075523;28;19947;-80
2022/07/02 00:43:03;;;;;;;;;;;10.30;99.90;;;;;;5075469;28;19920;-80
2022/07/02 00:45:29;;;;;;;;;;;10.30;99.90;;;;;;5074876;28;19966;-81
2022/07/02 00:47:55;;;;;;;;;;;10.20;99.90;;;;;;5077715;28;19912;-81
2022/07/02 00:50:21;;;;;;;;;;;10.30;99.90;;;;;;5075410;28;20491;-81
2022/07/02 00:52:47;;;;;;;;;;;10.40;99.90;;;;;;5073979;28;20005;-80
2022/07/02 00:55:13;;;;;;;;;;;10.50;99.90;;;;;;5073227;28;19908;-80
2022/07/02 00:57:38;;;;;;;;;;;10.50;99.90;;;;;;5075181;28;20415;-81
2022/07/02 01:00:04;;;;;;;;;;;10.50;99.90;;;;;;5068311;28;19915;-80
2022/07/02 01:02:30;;;;;;;;;;;10.50;99.90;;;;;;5074603;28;19958;-81
2022/07/02 01:04:56;;;;;;;;;;;10.50;99.90;;;;;;5073248;28;20011;-80
2022/07/02 01:07:22;;;;;;;;;;;10.50;99.90;;;;;;5074716;28;19912;-80
2022/07/02 01:12:33;;;;;;;;;;;10.60;99.90;;;;;;5054714;28;19916;-80
2022/07/02 01:14:59;;;;;;;;;;;10.60;99.90;;;;;;5068045;28;20428;-80
2022/07/02 01:17:24;;;;;;;;;;;10.60;99.90;;;;;;5074556;28;19951;-80
2022/07/02 01:19:50;;;;;;;;;;;10.60;99.90;;;;;;5077412;28;20335;-80
2022/07/02 01:22:18;;;;;;;;;;;10.50;99.90;;;;;;5073871;28;19913;-80
2022/07/02 01:24:44;;;;;;;;;;;10.50;99.90;;;;;;5072738;28;19916;-81
2022/07/02 01:27:10;;;;;;;;;;;10.50;99.90;;;;;;5073033;28;19956;-80
2022/07/02 01:29:35;;;;;;;;;;;10.40;99.90;;;;;;5074321;28;19908;-80
2022/07/02 01:32:01;;;;;;;;;;;10.30;99.90;;;;;;5072704;28;19909;-80
2022/07/02 01:34:27;;;;;;;;;;;10.30;99.90;;;;;;5070617;28;19908;-80
2022/07/02 01:36:53;;;;;;;;;;;10.20;99.90;;;;;;5073294;28;20354;-80
2022/07/02 01:39:25;;;;;;;;;;;10.20;99.90;;;;;;5072261;28;20463;-80
2022/07/02 01:41:50;;;;;;;;;;;10.10;99.90;;;;;;5074326;28;19919;-80
2022/07/02 01:44:16;;;;;;;;;;;10.00;99.90;;;;;;5073936;28;19908;-80
2022/07/02 01:46:43;;;;;;;;;;;10.00;99.90;;;;;;5074545;28;19913;-80
2022/07/02 01:49:09;;;;;;;;;;;10.00;99.90;;;;;;5074357;28;20137;-80
2022/07/02 01:51:34;;;;;;;;;;;10.10;99.90;;;;;;5074221;28;19919;-81
2022/07/02 01:54:00;;;;;;;;;;;10.00;99.90;;;;;;5073230;28;19908;-80
2022/07/02 01:56:25;;;;;;;;;;;10.00;99.90;;;;;;5072929;28;19912;-81
2022/07/02 01:58:51;;;;;;;;;;;9.90;99.90;;;;;;5074312;28;19924;-80
2022/07/02 02:01:16;;;;;;;;;;;9.80;99.90;;;;;;5073915;28;19919;-80
2022/07/02 02:03:42;;;;;;;;;;;9.80;99.90;;;;;;5072124;28;20370;-80
2022/07/02 02:06:07;;;;;;;;;;;9.80;99.90;;;;;;5074875;28;19908;-82
2022/07/02 02:08:33;;;;;;;;;;;9.90;99.90;;;;;;5073958;28;19992;-80
2022/07/02 02:10:58;;;;;;;;;;;9.90;99.90;;;;;;5072208;28;19993;-80
2022/07/02 02:13:24;;;;;;;;;;;9.80;99.90;;;;;;5072177;28;20185;-80
2022/07/02 02:15:49;;;;;;;;;;;9.60;99.90;;;;;;5072127;28;20346;-81
2022/07/02 02:18:15;;;;;;;;;;;9.50;99.90;;;;;;5074037;28;19916;-80
2022/07/02 02:20:40;;;;;;;;;;;9.50;99.90;;;;;;5073104;28;20021;-80
2022/07/02 02:23:06;;;;;;;;;;;9.50;99.90;;;;;;5071993;28;20385;-81
2022/07/02 02:25:32;;;;;;;;;;;9.50;99.90;;;;;;5073383;28;19908;-81
2022/07/02 02:27:58;;;;;;;;;;;9.60;99.90;;;;;;5073480;28;19909;-80
2022/07/02 02:30:23;;;;;;;;;;;9.50;99.90;;;;;;5073583;28;19908;-80
2022/07/02 02:32:49;;;;;;;;;;;9.40;99.90;;;;;;5072873;28;19908;-80
2022/07/02 02:35:14;;;;;;;;;;;9.40;99.90;;;;;;5075323;28;19912;-80
2022/07/02 02:37:40;;;;;;;;;;;9.40;99.90;;;;;;5072548;28;20281;-81
2022/07/02 02:40:06;;;;;;;;;;;9.40;99.90;;;;;;5074370;28;20355;-80
2022/07/02 02:42:31;;;;;;;;;;;9.40;99.90;;;;;;5075268;28;19952;-80
2022/07/02 02:44:57;;;;;;;;;;;9.30;99.90;;;;;;5075177;28;19932;-80
2022/07/02 02:47:23;;;;;;;;;;;9.30;99.90;;;;;;5074925;28;19992;-82
2022/07/02 02:49:49;;;;;;;;;;;9.30;99.90;;;;;;5073996;28;19908;-80
2022/07/02 02:52:14;;;;;;;;;;;9.30;99.90;;;;;;5073378;28;19920;-80
2022/07/02 02:54:39;;;;;;;;;;;9.30;99.90;;;;;;5073984;28;20449;-80
2022/07/02 02:57:05;;;;;;;;;;;9.20;99.90;;;;;;5073571;28;19920;-80
2022/07/02 02:59:30;;;;;;;;;;;9.20;99.90;;;;;;5072479;28;19913;-81
2022/07/02 03:01:56;;;;;;;;;;;9.20;99.90;;;;;;5073037;28;19935;-80
2022/07/02 03:04:21;;;;;;;;;;;9.20;99.90;;;;;;5078465;28;19908;-80
2022/07/02 03:06:47;;;;;;;;;;;9.10;99.90;;;;;;5079898;28;19909;-81
2022/07/02 03:09:12;;;;;;;;;;;9.10;99.90;;;;;;5074111;28;20003;-80
2022/07/02 03:11:38;;;;;;;;;;;9.10;99.90;;;;;;5073335;28;19999;-80
2022/07/02 03:14:03;;;;;;;;;;;9.00;99.90;;;;;;5072966;28;19915;-80
2022/07/02 03:16:29;;;;;;;;;;;8.90;99.90;;;;;;5074403;28;19915;-81
2022/07/02 03:18:54;;;;;;;;;;;8.90;99.90;;;;;;5075303;28;20601;-80
2022/07/02 03:21:20;;;;;;;;;;;8.90;99.90;;;;;;5073522;28;19916;-80
2022/07/02 03:23:45;;;;;;;;;;;8.90;99.90;;;;;;5073859;28;19962;-80
2022/07/02 03:26:11;;;;;;;;;;;8.80;99.90;;;;;;5075891;28;19916;-80
2022/07/02 03:28:37;;;;;;;;;;;8.80;99.90;;;;;;5074589;28;19944;-80
2022/07/02 03:31:02;;;;;;;;;;;8.80;99.90;;;;;;5073456;28;20277;-80
2022/07/02 03:33:28;;;;;;;;;;;8.70;99.90;;;;;;5073169;28;19970;-80
2022/07/02 03:35:53;;;;;;;;;;;8.70;99.90;;;;;;5075206;28;19908;-80
2022/07/02 03:38:19;;;;;;;;;;;8.70;99.90;;;;;;5074366;28;19908;-80
2022/07/02 03:40:44;;;;;;;;;;;8.70;99.90;;;;;;5075357;28;20475;-80
2022/07/02 03:43:10;;;;;;;;;;;8.70;99.90;;;;;;5074718;28;19909;-81
2022/07/02 03:45:35;;;;;;;;;;;8.80;99.90;;;;;;5074684;28;19912;-80
2022/07/02 03:48:00;;;;;;;;;;;8.80;99.90;;;;;;5075298;28;19909;-80
2022/07/02 03:50:26;;;;;;;;;;;8.80;99.90;;;;;;5075171;28;20297;-80
2022/07/02 03:52:51;;;;;;;;;;;8.80;99.90;;;;;;5073064;28;19954;-80
2022/07/02 03:55:17;;;;;;;;;;;8.80;99.90;;;;;;5075039;28;19943;-80
2022/07/02 03:57:42;;;;;;;;;;;8.90;99.90;;;;;;5074373;28;19912;-80
2022/07/02 04:00:08;;;;;;;;;;;9.00;99.90;;;;;;5075659;28;19908;-80
2022/07/02 04:02:34;;;;;;;;;;;9.00;99.90;;;;;;5078774;28;19912;-80
2022/07/02 04:04:59;;;;;;;;;;;9.10;99.90;;;;;;5084252;28;19915;-80
2022/07/02 04:07:25;;;;;;;;;;;9.20;99.90;;;;;;5077547;28;20353;-80
2022/07/02 04:09:50;;;;;;;;;;;9.20;99.90;;;;;;5079689;28;19909;-82
2022/07/02 04:12:16;;;;;;;;;;;9.30;99.90;;;;;;5080622;28;19944;-80
2022/07/02 04:14:41;;;;;;;;;;;9.30;99.90;;;;;;5080155;28;19919;-81
2022/07/02 04:17:07;;;;;;;;;;;9.40;99.90;;;;;;5079701;28;20021;-80
2022/07/02 04:19:32;;;;;;;;;;;9.40;99.90;;;;;;5078474;28;19908;-82
2022/07/02 04:22:01;;;;;;;;;;;9.50;99.90;;;;;;5077541;28;19936;-80
2022/07/02 04:24:29;;;;;;;;;;;9.50;99.90;;;;;;5078374;28;19916;-80
2022/07/02 04:26:55;;;;;;;;;;;9.60;99.90;;;;;;5077191;28;19919;-80
2022/07/02 04:29:20;;;;;;;;;;;9.70;99.90;;;;;;5078745;28;19909;-80
2022/07/02 04:31:46;;;;;;;;;;;9.70;99.90;;;;;;5078233;28;19930;-80
2022/07/02 04:34:12;;;;;;;;;;;9.80;99.90;;;;;;5077969;28;19909;-80
2022/07/02 04:36:39;;;;;;;;;;;9.90;99.90;;;;;;5079285;28;19909;-80
2022/07/02 04:39:04;;;;;;;;;;;10.00;99.90;;;;;;5080336;28;19915;-80
2022/07/02 04:41:30;;;;;;;;;;;10.10;99.90;;;;;;5079876;28;20357;-80
2022/07/02 04:43:56;;;;;;;;;;;10.20;99.90;;;;;;5078469;28;19916;-81
2022/07/02 04:46:21;;;;;;;;;;;10.20;99.90;;;;;;5080909;28;19916;-81
2022/07/02 04:48:47;;;;;;;;;;;10.30;99.90;;;;;;5080984;28;19962;-80
2022/07/02 04:51:12;;;;;;;;;;;10.30;99.90;;;;;;5079796;28;19962;-82
2022/07/02 04:53:38;;;;;;;;;;;10.40;99.90;;;;;;5077692;28;19909;-81
2022/07/02 04:56:03;;;;;;;;;;;10.60;99.90;;;;;;5078500;28;19955;-80
2022/07/02 04:58:29;;;;;;;;;;;10.70;99.90;;;;;;5077918;28;19967;-80
2022/07/02 05:00:54;;;;;;;;;;;10.80;99.90;;;;;;5075516;28;19916;-80
2022/07/02 05:03:20;;;;;;;;;;;10.90;99.90;;;;;;5078441;28;19908;-81
2022/07/02 05:05:46;;;;;;;;;;;10.90;99.90;;;;;;5079887;28;19908;-81
2022/07/02 05:08:11;;;;;;;;;;;11.00;99.90;;;;;;5079869;28;19991;-81
2022/07/02 05:10:37;;;;;;;;;;;11.00;99.90;;;;;;5079350;28;19909;-80
2022/07/02 05:13:04;;;;;;;;;;;11.10;99.90;;;;;;5078654;28;19944;-81
2022/07/02 05:15:30;;;;;;;;;;;11.20;99.90;;;;;;5079793;28;19909;-80
2022/07/02 05:17:55;;;;;;;;;;;11.40;99.90;;;;;;5080592;28;19913;-81
2022/07/02 05:20:21;;;;;;;;;;;11.60;99.90;;;;;;5078923;28;19909;-80
2022/07/02 05:22:46;;;;;;;;;;;11.70;99.90;;;;;;5077824;28;19930;-81
2022/07/02 05:25:12;;;;;;;;;;;11.90;99.90;;;;;;5077876;28;19935;-81
2022/07/02 05:27:37;;;;;;;;;;;12.10;99.90;;;;;;5079734;28;20305;-80
2022/07/02 05:30:03;;;;;;;;;;;12.20;99.90;;;;;;5080123;28;20300;-81
2022/07/02 05:32:28;;;;;;;;;;;12.20;99.90;;;;;;5079660;28;19916;-81
2022/07/02 05:34:54;;;;;;;;;;;12.40;99.90;;;;;;5083368;28;19915;-80
2022/07/02 05:37:19;;;;;;;;;;;12.50;99.90;;;;;;5078985;28;20362;-81
2022/07/02 05:39:45;;;;;;;;;;;12.60;99.90;;;;;;5070042;28;19975;-81
2022/07/02 05:42:10;;;;;;;;;;;12.70;99.90;;;;;;5064958;28;20065;-82
2022/07/02 05:44:36;;;;;;;;;;;12.80;99.90;;;;;;5073294;28;19908;-81
2022/07/02 05:47:01;;;;;;;;;;;12.90;99.90;;;;;;5065895;28;19943;-81
2022/07/02 05:49:27;;;;;;;;;;;13.00;99.90;;;;;;5065470;28;19913;-81
2022/07/02 05:51:52;;;;;;;;;;;13.20;99.90;;;;;;5061686;28;19908;-81
2022/07/02 05:54:18;;;;;;;;;;;13.60;99.90;;;;;;5063733;28;19944;-81
2022/07/02 05:56:43;;;;;;;;;;;14.70;99.90;;;;;;5071363;28;19915;-81
2022/07/02 05:59:09;;;;;;;;;;;15.90;99.90;;;;;;5070239;28;20353;-85
2022/07/02 06:01:34;;;;;;;;;;;16.10;99.90;;;;;;5073833;28;20285;-78
2022/07/02 06:04:00;;;;;;;;;;;17.20;99.90;;;;;;5071815;28;19912;-78
2022/07/02 06:09:10;;;;;;;;;;;17.90;99.90;;;;;;5073259;28;20017;-78
2022/07/02 06:11:35;;;;;;;;;;;17.90;99.90;;;;;;5071115;28;20392;-80
2022/07/02 06:14:01;;;;;;;;;;;18.00;99.90;;;;;;5072309;28;19913;-78
2022/07/02 06:16:27;;;;;;;;;;;16.90;99.90;;;;;;5073360;28;20309;-78
2022/07/02 06:18:53;;;;;;;;;;;17.90;99.90;;;;;;5071445;28;20004;-78
2022/07/02 06:21:18;;;;;;;;;;;18.30;99.90;;;;;;5071089;28;20400;-78
2022/07/02 06:23:44;;;;;;;;;;;18.90;99.90;;;;;;5071600;28;19999;-79
2022/07/02 06:26:09;;;;;;;;;;;18.80;99.90;;;;;;5072425;28;19916;-81
2022/07/02 06:28:35;;;;;;;;;;;17.40;99.90;;;;;;5071473;28;20362;-79
2022/07/02 06:31:00;;;;;;;;;;;17.10;99.90;;;;;;5073514;28;19915;-80
2022/07/02 06:33:26;;;;;;;;;;;18.10;99.90;;;;;;5071054;28;19916;-80
2022/07/02 06:35:51;;;;;;;;;;;18.60;99.90;;;;;;5075518;28;19936;-79
2022/07/02 06:38:17;;;;;;;;;;;18.00;99.90;;;;;;5076524;28;19931;-80
2022/07/02 06:40:43;;;;;;;;;;;19.10;99.90;;;;;;5076937;28;19913;-80
2022/07/02 06:43:08;;;;;;;;;;;19.40;99.90;;;;;;5076890;28;19908;-80
2022/07/02 06:45:34;;;;;;;;;;;19.90;99.90;;;;;;5079431;28;19944;-80
2022/07/02 06:47:59;;;;;;;;;;;20.10;99.90;;;;;;5078997;28;19961;-80
2022/07/02 06:50:25;;;;;;;;;;;20.10;99.90;;;;;;5075854;28;20270;-80
2022/07/02 06:52:50;;;;;;;;;;;19.80;99.90;;;;;;5073730;28;20380;-83
2022/07/02 06:55:18;;;;;;;;;;;19.80;99.90;;;;;;5073768;28;19915;-79
2022/07/02 06:57:43;;;;;;;;;;;20.30;99.90;;;;;;5074288;28;19916;-80
2022/07/02 07:00:09;;;;;;;;;;;20.60;99.90;;;;;;5074250;28;20374;-81
2022/07/02 07:02:34;;;;;;;;;;;21.00;99.90;;;;;;5072967;28;19935;-81
2022/07/02 07:05:00;;;;;;;;;;;21.20;99.90;;;;;;5075095;28;19919;-81
2022/07/02 07:07:28;;;;;;;;;;;20.80;99.90;;;;;;5071546;28;19913;-80
2022/07/02 07:09:54;;;;;;;;;;;21.00;99.90;;;;;;5070479;28;19916;-80
2022/07/02 07:12:20;;;;;;;;;;;21.10;99.90;;;;;;5072286;28;20285;-80
2022/07/02 07:14:45;;;;;;;;;;;21.30;99.90;;;;;;5072138;28;19954;-80
2022/07/02 07:17:11;;;;;;;;;;;22.00;99.90;;;;;;5071928;28;20281;-80
2022/07/02 07:19:36;;;;;;;;;;;22.20;99.90;;;;;;5073060;28;19908;-80
2022/07/02 07:22:02;;;;;;;;;;;22.20;99.90;;;;;;5072768;28;19912;-81
2022/07/02 07:24:27;;;;;;;;;;;22.40;99.90;;;;;;5089330;28;19942;-80
2022/07/02 07:26:53;;;;;;;;;;;22.10;99.90;;;;;;5079789;28;19962;-80
2022/07/02 07:29:18;;;;;;;;;;;22.40;99.90;;;;;;5068225;28;19915;-80
2022/07/02 07:31:44;;;;;;;;;;;22.20;99.90;;;;;;5071708;28;19908;-80
2022/07/02 07:34:10;;;;;;;;;;;22.40;99.90;;;;;;5069765;28;19916;-80
2022/07/02 07:36:35;;;;;;;;;;;22.70;97.40;;;;;;5070161;28;19913;-80
2022/07/02 07:39:02;;;;;;;;;;;23.20;99.60;;;;;;5071986;28;19909;-80
2022/07/02 07:41:28;;;;;;;;;;;23.70;98.10;;;;;;5070396;28;19912;-80
2022/07/02 07:43:53;;;;;;;;;;;24.10;98.20;;;;;;5071326;28;20388;-80
2022/07/02 07:46:19;;;;;;;;;;;23.40;97.90;;;;;;5070549;28;20535;-80
2022/07/02 07:48:45;;;;;;;;;;;23.40;98.20;;;;;;5071796;28;19915;-80
2022/07/02 07:51:10;;;;;;;;;;;23.90;96.80;;;;;;5071030;28;19908;-81
2022/07/02 07:53:36;;;;;;;;;;;23.70;95.80;;;;;;5070975;28;20339;-81
2022/07/02 07:56:01;;;;;;;;;;;24.10;97.90;;;;;;5071883;28;19954;-80
2022/07/02 07:58:27;;;;;;;;;;;24.10;95.20;;;;;;5071479;28;20357;-80
2022/07/02 08:00:52;;;;;;;;;;;24.20;97.10;;;;;;5075051;28;20358;-80
2022/07/02 08:03:18;;;;;;;;;;;24.70;94.80;;;;;;5067142;28;19909;-82
2022/07/02 08:05:46;;;;;;;;;;;24.40;95.30;;;;;;5071086;28;19935;-83
2022/07/02 08:08:12;;;;;;;;;;;25.00;94.70;;;;;;5070955;28;19909;-80
2022/07/02 08:10:37;;;;;;;;;;;24.90;95.20;;;;;;5071233;28;19916;-79
2022/07/02 08:13:02;;;;;;;;;;;25.20;93.80;;;;;;5071117;28;19921;-78
2022/07/02 08:15:28;;;;;;;;;;;25.10;90.60;;;;;;5071243;28;20025;-79
2022/07/02 08:17:53;;;;;;;;;;;24.10;90.20;;;;;;5071936;28;19915;-79
2022/07/02 08:20:19;;;;;;;;;;;24.70;94.60;;;;;;5072145;28;19912;-79
2022/07/02 08:22:46;;;;;;;;;;;24.90;93.30;;;;;;5072296;28;19960;-79
2022/07/02 08:25:13;;;;;;;;;;;24.80;93.30;;;;;;5072475;28;19920;-81
2022/07/02 08:27:39;;;;;;;;;;;24.80;93.00;;;;;;5072913;28;19956;-82
2022/07/02 08:30:05;;;;;;;;;;;24.50;88.10;;;;;;5085072;28;19908;-81
2022/07/02 08:32:31;;;;;;;;;;;25.00;90.40;;;;;;5075390;28;20007;-82
2022/07/02 08:34:57;;;;;;;;;;;25.70;91.30;;;;;;5073732;28;19908;-81
2022/07/02 08:37:23;;;;;;;;;;;25.40;92.10;;;;;;5074720;28;19915;-81
2022/07/02 08:39:48;;;;;;;;;;;26.00;87.50;;;;;;5072774;28;19908;-82
2022/07/02 08:42:32;;;;;;;;;;;25.40;90.90;;;;;;5074125;28;19912;-83
2022/07/02 08:44:58;;;;;;;;;;;26.10;90.30;;;;;;5073945;28;19972;-81
2022/07/02 08:47:25;;;;;;;;;;;27.00;82.40;;;;;;5075600;28;20049;-80
2022/07/02 08:49:51;;;;;;;;;;;25.80;85.30;;;;;;5077594;28;19912;-84
2022/07/02 08:52:17;;;;;;;;;;;25.70;86.30;;;;;;5075427;28;19909;-84
2022/07/02 08:54:44;;;;;;;;;;;25.40;85.50;;;;;;5076464;28;19915;-83
2022/07/02 08:57:10;;;;;;;;;;;25.80;85.90;;;;;;5075413;28;19909;-81
2022/07/02 08:59:36;;;;;;;;;;;26.40;88.90;;;;;;5081554;28;19908;-82
2022/07/02 09:02:02;;;;;;;;;;;27.40;90.20;;;;;;5092018;28;19950;-83
2022/07/02 09:04:27;;;;;;;;;;;26.80;85.30;;;;;;5076014;28;19909;-83
2022/07/02 09:06:54;;;;;;;;;;;25.70;82.30;;;;;;5078298;28;19943;-83
2022/07/02 09:09:19;;;;;;;;;;;26.70;78.20;;;;;;5077168;28;19916;-83
2022/07/02 09:11:45;;;;;;;;;;;26.50;83.60;;;;;;5076316;28;20293;-83
2022/07/02 09:14:12;;;;;;;;;;;26.80;84.60;;;;;;5076943;28;19912;-83
2022/07/02 09:16:38;;;;;;;;;;;26.60;79.40;;;;;;5074486;28;19908;-83
2022/07/02 09:19:03;;;;;;;;;;;26.40;85.20;;;;;;5077123;28;20323;-83
2022/07/02 09:21:39;;;;;;;;;;;25.80;83.60;;;;;;5077970;28;19919;-82
2022/07/02 09:24:04;;;;;;;;;;;25.60;86.40;;;;;;5076672;28;20281;-83
2022/07/02 09:26:31;;;;;;;;;;;25.90;85.40;;;;;;5075126;28;19915;-83
2022/07/02 09:29:00;;;;;;;;;;;26.30;88.00;;;;;;5072365;28;20439;-83
2022/07/02 09:31:26;;;;;;;;;;;26.00;90.10;;;;;;5075761;28;19935;-83
2022/07/02 09:33:53;;;;;;;;;;;26.20;79.20;;;;;;5076423;28;19912;-83
2022/07/02 09:36:19;;;;;;;;;;;26.10;82.00;;;;;;5078428;28;20296;-83
2022/07/02 09:38:46;;;;;;;;;;;25.80;79.10;;;;;;5078813;28;19909;-83
2022/07/02 09:41:12;;;;;;;;;;;25.60;85.00;;;;;;5079043;28;19999;-82
2022/07/02 09:43:38;;;;;;;;;;;26.10;79.50;;;;;;5078127;28;19909;-83
2022/07/02 09:46:13;;;;;;;;;;;27.10;83.10;;;;;;5078741;28;19916;-82
2022/07/02 09:48:39;;;;;;;;;;;27.00;84.00;;;;;;5077135;28;19931;-83
2022/07/02 09:51:04;;;;;;;;;;;27.40;81.30;;;;;;5078368;28;19916;-84
2022/07/02 09:53:30;;;;;;;;;;;26.10;78.00;;;;;;5075312;28;19919;-81
2022/07/02 09:55:56;;;;;;;;;;;26.60;79.00;;;;;;5077070;28;20011;-82
2022/07/02 09:58:23;;;;;;;;;;;26.40;88.60;;;;;;5074524;28;19970;-83
2022/07/02 10:00:48;;;;;;;;;;;26.20;79.60;;;;;;5078035;28;19975;-82
2022/07/02 10:03:14;;;;;;;;;;;26.00;75.30;;;;;;5076564;28;19955;-83
2022/07/02 10:05:41;;;;;;;;;;;26.30;75.10;;;;;;5075379;28;19909;-83
2022/07/02 10:08:07;;;;;;;;;;;26.30;84.30;;;;;;5074972;28;19908;-82
2022/07/02 10:10:40;;;;;;;;;;;26.00;77.30;;;;;;5075270;28;20258;-83
2022/07/02 10:13:06;;;;;;;;;;;27.30;77.40;;;;;;5074172;28;20297;-83
2022/07/02 10:15:33;;;;;;;;;;;26.90;82.30;;;;;;5076233;28;19967;-83
2022/07/02 10:18:00;;;;;;;;;;;26.20;70.80;;;;;;5075252;28;20353;-82
2022/07/02 10:20:28;;;;;;;;;;;26.00;81.90;;;;;;5074508;28;19919;-83
2022/07/02 10:22:54;;;;;;;;;;;27.20;82.00;;;;;;5074755;28;19927;-82
2022/07/02 10:25:20;;;;;;;;;;;27.80;73.50;;;;;;5074916;28;19908;-82
2022/07/02 10:27:46;;;;;;;;;;;27.70;68.40;;;;;;5077070;28;19935;-83
2022/07/02 10:30:12;;;;;;;;;;;28.30;81.10;;;;;;5082137;28;19908;-83
2022/07/02 10:32:50;;;;;;;;;;;28.00;68.90;;;;;;5074217;28;19916;-81
2022/07/02 10:35:16;;;;;;;;;;;27.20;65.90;;;;;;5074316;28;19912;-86
2022/07/02 10:37:42;;;;;;;;;;;27.20;67.40;;;;;;5073167;28;20003;-82
2022/07/02 10:40:08;;;;;;;;;;;26.30;72.40;;;;;;5074374;28;19978;-81
2022/07/02 10:42:36;;;;;;;;;;;27.30;69.70;;;;;;5075037;28;19919;-82
2022/07/02 10:45:12;;;;;;;;;;;27.10;71.40;;;;;;5075190;28;19954;-82
2022/07/02 10:47:51;;;;;;;;;;;27.80;77.00;;;;;;5075766;28;19918;-81
2022/07/02 10:50:17;;;;;;;;;;;28.80;72.10;;;;;;5075823;28;19909;-81
2022/07/02 10:52:49;;;;;;;;;;;27.70;76.50;;;;;;5075522;28;20438;-81
2022/07/02 10:55:25;;;;;;;;;;;28.10;65.90;;;;;;5074999;28;19916;-82
2022/07/02 10:57:58;;;;;;;;;;;27.40;66.80;;;;;;5055526;28;20286;-81
2022/07/02 11:00:31;;;;;;;;;;;25.70;68.20;;;;;;5069039;28;19915;-82
2022/07/02 11:02:57;;;;;;;;;;;27.50;67.70;;;;;;5074738;28;19912;-85
2022/07/02 11:05:23;;;;;;;;;;;28.70;72.10;;;;;;5075126;28;19908;-82
2022/07/02 11:07:48;;;;;;;;;;;27.70;64.80;;;;;;5074953;28;19908;-83
2022/07/02 11:10:14;;;;;;;;;;;28.10;81.20;;;;;;5076128;28;19916;-83
2022/07/02 11:12:49;;;;;;;;;;;27.50;69.20;;;;;;5072256;28;19908;-79
2022/07/02 11:15:18;;;;;;;;;;;26.00;67.90;;;;;;5071467;28;20392;-80
2022/07/02 11:17:51;;;;;;;;;;;27.30;68.50;;;;;;5071532;28;19947;-79
2022/07/02 11:20:26;;;;;;;;;;;27.10;63.20;;;;;;5073617;28;19912;-83
2022/07/02 11:22:52;;;;;;;;;;;26.20;64.20;;;;;;5073622;28;19920;-82
2022/07/02 11:25:18;;;;;;;;;;;27.50;71.10;;;;;;5074872;28;19916;-81
2022/07/02 11:27:53;;;;;;;;;;;27.50;71.60;;;;;;5076650;28;20049;-82
2022/07/02 11:30:23;;;;;;;;;;;28.40;65.80;;;;;;5072515;28;20357;-83
2022/07/02 11:32:48;;;;;;;;;;;28.00;62.80;;;;;;5074245;28;19908;-81
2022/07/02 11:35:16;;;;;;;;;;;27.70;61.50;;;;;;5075038;28;20010;-82
2022/07/02 11:37:45;;;;;;;;;;;26.50;59.90;;;;;;5076688;28;19908;-82
2022/07/02 11:40:17;;;;;;;;;;;27.30;64.10;;;;;;5076302;28;20366;-81
2022/07/02 11:42:42;;;;;;;;;;;25.90;61.20;;;;;;5074631;28;19917;-82
2022/07/02 11:45:08;;;;;;;;;;;26.70;71.10;;;;;;5075504;28;19916;-81
2022/07/02 11:47:41;;;;;;;;;;;27.30;65.00;;;;;;5074217;28;19909;-82
2022/07/02 11:50:07;;;;;;;;;;;27.90;64.90;;;;;;5076045;28;19908;-81
2022/07/02 11:52:32;;;;;;;;;;;27.60;63.90;;;;;;5073002;28;19915;-80
2022/07/02 11:54:58;;;;;;;;;;;27.20;64.30;;;;;;5071040;28;19904;-78
2022/07/02 11:57:33;;;;;;;;;;;27.90;67.00;;;;;;5071656;28;19948;-82
2022/07/02 11:59:58;;;;;;;;;;;27.70;60.90;;;;;;5070980;28;19909;-79
2022/07/02 12:02:24;;;;;;;;;;;28.80;62.40;;;;;;5076961;28;19975;-80
2022/07/02 12:04:49;;;;;;;;;;;27.40;61.10;;;;;;5075997;28;19909;-80
2022/07/02 12:07:15;;;;;;;;;;;28.20;65.10;;;;;;5075837;28;19909;-79
2022/07/02 12:09:40;;;;;;;;;;;28.20;63.90;;;;;;5073424;28;19908;-79
2022/07/02 12:12:06;;;;;;;;;;;26.30;62.80;;;;;;5072321;28;19908;-80
2022/07/02 12:14:32;;;;;;;;;;;26.80;65.60;;;;;;5072185;28;19908;-80
2022/07/02 12:16:57;;;;;;;;;;;26.90;62.30;;;;;;5074221;28;19944;-80
2022/07/02 12:19:30;;;;;;;;;;;27.40;63.70;;;;;;5075373;28;20049;-79
2022/07/02 12:21:56;;;;;;;;;;;27.60;64.40;;;;;;5071573;28;20262;-78
2022/07/02 12:24:31;;;;;;;;;;;28.40;68.20;;;;;;5074354;28;19923;-78
2022/07/02 12:26:58;;;;;;;;;;;28.00;60.40;;;;;;5073659;28;19916;-80
2022/07/02 12:32:10;;;;;;;;;;;27.90;67.60;;;;;;5074776;28;19931;-79
2022/07/02 12:34:37;;;;;;;;;;;29.80;60.30;;;;;;5074161;28;19912;-79
2022/07/02 12:37:03;;;;;;;;;;;30.30;58.30;;;;;;5074937;28;20493;-80
2022/07/02 12:39:41;;;;;;;;;;;31.50;53.50;;;;;;5074795;28;20332;-82
2022/07/02 12:42:11;;;;;;;;;;;32.10;56.90;;;;;;5074211;28;20258;-79
2022/07/02 12:44:36;;;;;;;;;;;32.20;52.80;;;;;;5072550;28;19992;-82
2022/07/02 12:47:02;;;;;;;;;;;34.50;49.40;;;;;;5078584;28;19940;-80
2022/07/02 12:49:27;;;;;;;;;;;33.40;48.40;;;;;;5080001;28;20395;-81
2022/07/02 12:52:01;;;;;;;;;;;33.80;51.60;;;;;;5082626;28;19962;-82
2022/07/02 12:54:36;;;;;;;;;;;33.30;52.30;;;;;;5078684;28;20307;-78
2022/07/02 12:57:31;;;;;;;;;;;34.00;51.60;;;;;;5073073;28;19908;-78
2022/07/02 12:59:57;;;;;;;;;;;34.70;47.40;;;;;;5062201;28;20551;-79
2022/07/02 13:02:24;;;;;;;;;;;33.80;47.70;;;;;;5089816;28;19919;-80
2022/07/02 13:04:49;;;;;;;;;;;33.30;50.50;;;;;;5077814;28;19987;-81
2022/07/02 13:07:15;;;;;;;;;;;33.30;50.50;;;;;;5076945;28;19944;-83
2022/07/02 13:09:41;;;;;;;;;;;33.40;51.40;;;;;;5075497;28;19970;-79
2022/07/02 13:12:07;;;;;;;;;;;32.30;52.90;;;;;;5075293;28;19953;-80
2022/07/02 13:14:33;;;;;;;;;;;32.30;53.50;;;;;;5078279;28;19954;-79
2022/07/02 13:16:58;;;;;;;;;;;34.10;51.80;;;;;;5079597;28;19909;-80
2022/07/02 13:19:24;;;;;;;;;;;33.60;51.80;;;;;;5080149;28;19917;-81
2022/07/02 13:21:49;;;;;;;;;;;33.70;49.10;;;;;;5078831;28;19919;-80
2022/07/02 13:24:15;;;;;;;;;;;32.90;50.70;;;;;;5079049;28;19920;-79
2022/07/02 13:26:40;;;;;;;;;;;32.50;52.60;;;;;;5079310;28;19909;-80
2022/07/02 13:29:06;;;;;;;;;;;33.70;49.40;;;;;;5080383;28;20400;-81
2022/07/02 13:31:32;;;;;;;;;;;34.30;46.50;;;;;;5088025;28;19909;-80
2022/07/02 13:33:59;;;;;;;;;;;34.00;50.70;;;;;;5078861;28;20377;-80
2022/07/02 13:36:24;;;;;;;;;;;34.00;52.90;;;;;;5081513;28;19915;-81
2022/07/02 13:38:50;;;;;;;;;;;33.90;52.20;;;;;;5082120;28;19949;-82
2022/07/02 13:41:15;;;;;;;;;;;33.50;50.40;;;;;;5082264;28;19928;-81
2022/07/02 13:43:41;;;;;;;;;;;32.80;49.40;;;;;;5081347;28;20003;-81
2022/07/02 13:46:06;;;;;;;;;;;33.50;50.60;;;;;;5078198;28;19908;-81
2022/07/02 13:48:32;;;;;;;;;;;33.80;50.10;;;;;;5078039;28;19915;-80
2022/07/02 13:50:57;;;;;;;;;;;34.70;50.50;;;;;;5077330;28;20003;-80
2022/07/02 13:53:23;;;;;;;;;;;32.60;51.70;;;;;;5076495;28;20029;-81
2022/07/02 13:55:48;;;;;;;;;;;32.70;53.20;;;;;;5077739;28;19908;-84
2022/07/02 13:58:14;;;;;;;;;;;33.80;49.60;;;;;;5072990;28;19909;-80
2022/07/02 14:00:41;;;;;;;;;;;32.90;51.10;;;;;;5078328;28;19909;-81
2022/07/02 14:03:07;;;;;;;;;;;31.50;52.50;;;;;;5079260;28;19908;-81
2022/07/02 14:05:32;;;;;;;;;;;32.10;54.30;;;;;;5082644;28;19915;-81
2022/07/02 14:07:58;;;;;;;;;;;33.80;50.40;;;;;;5082397;28;19952;-81
2022/07/02 14:10:23;;;;;;;;;;;34.60;50.60;;;;;;5081572;28;19915;-81
2022/07/02 14:12:49;;;;;;;;;;;34.30;49.40;;;;;;5079945;28;20357;-82
2022/07/02 14:15:14;;;;;;;;;;;34.80;51.60;;;;;;5081457;28;19920;-81
2022/07/02 14:17:40;;;;;;;;;;;32.90;49.10;;;;;;5082382;28;19930;-80
2022/07/02 14:20:06;;;;;;;;;;;33.30;50.00;;;;;;5081858;28;19912;-81
2022/07/02 14:22:31;;;;;;;;;;;33.50;50.50;;;;;;5082013;28;19918;-81